Time;durP1;ratioP1;P1;durP2;ratioP2;P2;SDS_P1;SDS_P2;PMS_P1;PMS_P2;Temp;Humidity;BMP_temperature;BMP_pressure;BME280_temperature;BME280_humidity;BME280_pressure;Samples;Min_cycle;Max_cycle;Signal;HPM_P1;HPM_P2
2021/04/25 00:01:45;;;;;;;10.97;2.20;;;6.40;64.80;;;;;;5112146;28;20135;-79
2021/04/25 00:04:14;;;;;;;4.13;2.10;;;6.30;64.60;;;;;;5111031;28;20051;-79
2021/04/25 00:06:44;;;;;;;6.63;2.43;;;6.30;64.70;;;;;;5111939;28;20837;-78
2021/04/25 00:09:10;;;;;;;5.63;1.90;;;6.30;64.90;;;;;;5111927;28;20293;-78
2021/04/25 00:11:36;;;;;;;4.33;1.70;;;6.30;65.10;;;;;;5111406;28;20294;-79
2021/04/25 00:14:03;;;;;;;5.67;2.27;;;6.30;64.80;;;;;;5111352;28;20387;-77
2021/04/25 00:16:29;;;;;;;8.33;1.50;;;6.20;64.70;;;;;;5112084;28;20123;-77
2021/04/25 00:18:58;;;;;;;10.50;2.73;;;6.20;64.30;;;;;;5110398;28;20730;-77
2021/04/25 00:21:24;;;;;;;6.33;1.40;;;6.20;64.30;;;;;;5112026;28;20364;-78
2021/04/25 00:23:50;;;;;;;6.13;1.67;;;6.20;63.70;;;;;;5111555;28;20372;-77
2021/04/25 00:26:16;;;;;;;6.17;2.40;;;6.10;63.60;;;;;;5110916;28;20384;-77
2021/04/25 00:28:42;;;;;;;7.57;1.53;;;6.10;63.90;;;;;;5111651;28;20039;-77
2021/04/25 00:31:08;;;;;;;4.67;1.87;;;6.10;64.10;;;;;;5110915;28;20297;-77
2021/04/25 00:33:34;;;;;;;7.13;1.50;;;6.10;64.10;;;;;;5111386;28;20503;-77
2021/04/25 00:36:00;;;;;;;9.10;2.90;;;6.10;64.20;;;;;;5111152;28;20499;-77
2021/04/25 00:38:26;;;;;;;8.83;2.60;;;6.20;64.50;;;;;;5110991;28;20294;-76
2021/04/25 00:40:51;;;;;;;8.37;2.07;;;6.20;64.60;;;;;;5111411;28;20542;-77
2021/04/25 00:43:17;;;;;;;6.10;1.90;;;6.20;64.60;;;;;;5111269;28;20134;-76
2021/04/25 00:45:43;;;;;;;6.77;1.80;;;6.20;64.70;;;;;;5110532;28;20082;-77
2021/04/25 00:48:08;;;;;;;8.50;2.17;;;6.10;64.80;;;;;;5111026;28;20130;-76
2021/04/25 00:50:34;;;;;;;5.03;1.73;;;6.10;65.10;;;;;;5111654;28;20055;-76
2021/04/25 00:53:00;;;;;;;6.00;2.00;;;6.10;65.20;;;;;;5112073;28;20101;-76
2021/04/25 00:55:30;;;;;;;7.60;2.27;;;6.10;65.50;;;;;;5115786;28;20354;-76
2021/04/25 00:57:58;;;;;;;5.53;1.80;;;6.10;65.70;;;;;;5114854;28;20302;-77
2021/04/25 01:00:26;;;;;;;10.40;3.07;;;6.10;65.90;;;;;;5114802;28;20305;-77
2021/04/25 01:02:51;;;;;;;6.27;2.50;;;6.10;66.20;;;;;;5115025;28;20329;-77
2021/04/25 01:05:23;;;;;;;8.83;2.57;;;6.10;66.10;;;;;;5115299;28;20403;-76
2021/04/25 01:07:48;;;;;;;5.43;1.87;;;6.10;66.10;;;;;;5114488;28;20301;-78
2021/04/25 01:10:15;;;;;;;6.80;2.23;;;6.10;66.10;;;;;;5115423;28;20301;-76
2021/04/25 01:12:42;;;;;;;9.20;2.30;;;6.10;66.20;;;;;;5114947;28;20048;-77
2021/04/25 01:15:13;;;;;;;8.53;2.30;;;6.10;66.30;;;;;;5114158;28;20358;-77
2021/04/25 01:17:41;;;;;;;8.77;2.67;;;6.10;65.90;;;;;;5113988;28;20688;-77
2021/04/25 01:20:08;;;;;;;8.27;3.30;;;6.10;65.60;;;;;;5114970;28;20327;-78
2021/04/25 01:22:34;;;;;;;7.37;1.93;;;6.10;65.60;;;;;;5114273;28;20782;-77
2021/04/25 01:25:05;;;;;;;7.50;2.10;;;6.10;65.70;;;;;;5114605;28;20319;-77
2021/04/25 01:27:31;;;;;;;8.33;2.10;;;6.10;65.80;;;;;;5114297;28;20066;-77
2021/04/25 01:29:56;;;;;;;7.97;2.10;;;6.10;65.80;;;;;;5114184;28;20392;-78
2021/04/25 01:32:22;;;;;;;14.20;3.10;;;6.10;66.00;;;;;;5115235;28;20040;-77
2021/04/25 01:34:47;;;;;;;9.80;3.33;;;6.10;66.60;;;;;;5113525;28;20060;-77
2021/04/25 01:37:13;;;;;;;10.93;2.40;;;6.10;66.40;;;;;;5114413;28;20052;-76
2021/04/25 01:39:39;;;;;;;11.00;2.80;;;6.20;66.60;;;;;;5114720;28;20485;-77
2021/04/25 01:42:05;;;;;;;8.63;2.83;;;6.10;67.60;;;;;;5113389;28;20043;-77
2021/04/25 01:44:30;;;;;;;10.23;2.47;;;6.10;66.90;;;;;;5114481;28;20051;-76
2021/04/25 01:46:56;;;;;;;6.93;2.17;;;6.10;67.00;;;;;;5114209;28;20770;-76
2021/04/25 01:49:22;;;;;;;10.63;2.37;;;6.00;67.10;;;;;;5113964;28;20043;-77
2021/04/25 01:51:47;;;;;;;7.07;2.30;;;6.00;67.20;;;;;;5114184;28;20051;-76
2021/04/25 01:54:13;;;;;;;11.20;2.73;;;6.10;67.50;;;;;;5114313;28;20047;-77
2021/04/25 01:56:39;;;;;;;4.67;1.53;;;6.00;67.40;;;;;;5113696;28;20079;-77
2021/04/25 01:59:07;;;;;;;8.73;2.10;;;6.00;67.40;;;;;;5114171;28;20054;-78
2021/04/25 02:01:33;;;;;;;7.10;2.30;;;6.00;67.30;;;;;;5114402;28;20297;-79
2021/04/25 02:03:59;;;;;;;6.93;2.03;;;6.00;67.20;;;;;;5112197;28;20044;-78
2021/04/25 02:06:25;;;;;;;6.93;3.40;;;6.00;67.30;;;;;;5114384;28;20289;-76
2021/04/25 02:08:51;;;;;;;7.37;2.07;;;6.00;67.30;;;;;;5113998;28;20301;-78
2021/04/25 02:11:18;;;;;;;8.40;2.30;;;6.00;67.30;;;;;;5113125;28;20297;-76
2021/04/25 02:13:44;;;;;;;5.80;2.30;;;6.00;67.20;;;;;;5113536;28;20636;-76
2021/04/25 02:16:09;;;;;;;7.37;1.90;;;6.00;67.40;;;;;;5113943;28;20067;-77
2021/04/25 02:18:35;;;;;;;5.97;1.90;;;6.00;67.20;;;;;;5113279;28;20089;-77
2021/04/25 02:21:04;;;;;;;10.57;2.10;;;6.00;67.40;;;;;;5113177;28;20055;-77
2021/04/25 02:23:29;;;;;;;7.93;1.67;;;6.00;67.40;;;;;;5113648;28;20297;-76
2021/04/25 02:25:55;;;;;;;5.83;1.80;;;6.00;67.40;;;;;;5112938;28;20143;-76
2021/04/25 02:28:21;;;;;;;7.53;1.63;;;6.00;67.40;;;;;;5113640;28;20040;-78
2021/04/25 02:30:46;;;;;;;11.83;2.20;;;6.00;67.70;;;;;;5112924;28;20062;-78
2021/04/25 02:33:12;;;;;;;9.63;1.83;;;6.00;68.00;;;;;;5113429;28;20507;-78
2021/04/25 02:35:38;;;;;;;8.37;2.07;;;6.00;68.30;;;;;;5113440;28;20063;-76
2021/04/25 02:38:04;;;;;;;8.83;1.57;;;6.10;69.20;;;;;;5112197;28;20134;-78
2021/04/25 02:40:33;;;;;;;10.20;1.67;;;6.10;68.40;;;;;;5113657;28;20313;-77
2021/04/25 02:42:59;;;;;;;12.13;2.70;;;6.00;68.00;;;;;;5112947;28;20291;-78
2021/04/25 02:45:26;;;;;;;8.47;1.87;;;6.00;67.80;;;;;;5112559;28;20789;-77
2021/04/25 02:47:58;;;;;;;5.53;1.93;;;6.00;67.80;;;;;;5113098;28;20298;-78
2021/04/25 02:50:25;;;;;;;;;;;6.10;67.70;;;;;;5113687;28;20301;-77
2021/04/25 02:52:51;;;;;;;7.13;1.87;;;6.00;66.90;;;;;;5112138;28;20425;-77
2021/04/25 02:55:17;;;;;;;9.77;1.70;;;6.00;67.00;;;;;;5112687;28;20301;-76
2021/04/25 02:57:43;;;;;;;11.57;1.87;;;6.00;66.90;;;;;;5113035;28;20460;-76
2021/04/25 03:00:12;;;;;;;9.90;1.53;;;6.00;66.80;;;;;;5112153;28;20290;-77
2021/04/25 03:02:38;;;;;;;10.47;2.07;;;6.00;66.70;;;;;;5112973;28;20380;-76
2021/04/25 03:05:05;;;;;;;8.43;1.40;;;6.00;66.80;;;;;;5112362;28;20396;-75
2021/04/25 03:07:31;;;;;;;7.30;1.90;;;6.00;66.80;;;;;;5112194;28;20048;-76
2021/04/25 03:09:56;;;;;;;5.63;1.33;;;5.90;66.90;;;;;;5112084;28;20321;-75
2021/04/25 03:12:22;;;;;;;5.03;1.33;;;5.90;67.00;;;;;;5113005;28;20117;-77
2021/04/25 03:14:48;;;;;;;10.20;1.70;;;5.90;67.20;;;;;;5111941;28;20071;-76
2021/04/25 03:17:14;;;;;;;8.03;1.70;;;5.90;67.20;;;;;;5112484;28;20055;-76
2021/04/25 03:19:39;;;;;;;9.47;1.90;;;5.90;67.10;;;;;;5112941;28;20051;-77
2021/04/25 03:22:05;;;;;;;5.13;1.90;;;5.80;66.80;;;;;;5111320;28;20785;-77
2021/04/25 03:24:34;;;;;;;7.67;1.60;;;5.90;66.90;;;;;;5112465;28;20047;-78
2021/04/25 03:27:01;;;;;;;5.40;1.40;;;5.90;66.80;;;;;;5111153;28;20429;-77
2021/04/25 03:29:27;;;;;;;8.40;1.77;;;5.90;66.60;;;;;;5112662;28;20301;-76
2021/04/25 03:31:53;;;;;;;6.20;1.57;;;5.90;66.70;;;;;;5112360;28;20324;-76
2021/04/25 03:34:21;;;;;;;3.50;0.93;;;5.90;66.60;;;;;;5111322;28;20810;-76
2021/04/25 03:36:49;;;;;;;8.63;1.63;;;5.90;66.80;;;;;;5112338;28;20059;-75
2021/04/25 03:39:15;;;;;;;14.13;1.90;;;5.90;66.90;;;;;;5112296;28;20297;-77
2021/04/25 03:41:41;;;;;;;3.00;1.33;;;5.90;66.90;;;;;;5111500;28;20071;-77
2021/04/25 03:44:06;;;;;;;5.67;1.53;;;5.90;67.00;;;;;;5112360;28;20379;-77
2021/04/25 03:46:32;;;;;;;7.80;1.67;;;5.90;67.20;;;;;;5112419;28;20633;-77
2021/04/25 03:48:58;;;;;;;6.83;1.47;;;5.90;67.50;;;;;;5110964;28;20054;-77
2021/04/25 03:51:24;;;;;;;6.63;1.50;;;5.90;67.60;;;;;;5112235;28;20054;-77
2021/04/25 03:53:49;;;;;;;11.13;2.27;;;5.90;67.70;;;;;;5111742;28;20139;-78
2021/04/25 03:56:15;;;;;;;12.90;2.00;;;5.90;67.90;;;;;;5111408;28;20487;-76
2021/04/25 03:58:41;;;;;;;7.60;1.57;;;5.90;67.90;;;;;;5111788;28;20050;-76
2021/04/25 04:01:07;;;;;;;8.30;2.23;;;5.90;67.80;;;;;;5111806;28;20067;-75
2021/04/25 04:03:33;;;;;;;11.67;1.77;;;5.90;68.00;;;;;;5111092;28;20802;-76
2021/04/25 04:05:58;;;;;;;11.33;1.83;;;5.90;68.00;;;;;;5111285;28;20047;-77
2021/04/25 04:08:24;;;;;;;9.77;1.60;;;5.90;68.20;;;;;;5112049;28;20048;-77
2021/04/25 04:10:50;;;;;;;7.47;1.60;;;5.90;68.30;;;;;;5111125;28;20053;-78
2021/04/25 04:13:15;;;;;;;12.47;1.73;;;5.90;68.30;;;;;;5111614;28;20059;-77
2021/04/25 04:15:41;;;;;;;6.93;1.27;;;6.00;68.60;;;;;;5111410;28;20063;-77
2021/04/25 04:18:07;;;;;;;5.00;1.80;;;5.90;68.50;;;;;;5110733;28;20097;-77
2021/04/25 04:20:33;;;;;;;9.00;1.60;;;5.90;68.60;;;;;;5111716;28;20539;-78
2021/04/25 04:22:59;;;;;;;9.70;2.13;;;5.90;68.70;;;;;;5111338;28;20294;-78
2021/04/25 04:25:24;;;;;;;7.07;1.47;;;5.90;68.80;;;;;;5110914;28;20320;-78
2021/04/25 04:27:52;;;;;;;12.33;2.13;;;5.90;68.80;;;;;;5114970;28;20126;-76
2021/04/25 04:30:18;;;;;;;9.60;1.83;;;6.00;69.00;;;;;;5117442;28;20328;-77
2021/04/25 04:32:43;;;;;;;9.97;2.37;;;5.90;68.80;;;;;;5118189;27;20043;-78
2021/04/25 04:35:10;;;;;;;12.60;2.27;;;6.00;69.10;;;;;;5117902;28;20309;-77
2021/04/25 04:37:35;;;;;;;9.97;1.73;;;6.00;69.00;;;;;;5117657;28;20056;-79
2021/04/25 04:40:02;;;;;;;11.33;2.10;;;6.00;69.00;;;;;;5117689;28;20293;-77
2021/04/25 04:42:28;;;;;;;6.33;1.70;;;6.00;69.10;;;;;;5118570;28;20044;-78
2021/04/25 04:44:53;;;;;;;8.00;1.73;;;6.00;69.10;;;;;;5117162;28;20324;-77
2021/04/25 04:47:19;;;;;;;6.97;1.93;;;6.00;69.00;;;;;;5118068;28;20043;-79
2021/04/25 04:49:44;;;;;;;6.53;1.60;;;6.00;68.80;;;;;;5117835;28;20507;-76
2021/04/25 04:52:10;;;;;;;12.40;2.03;;;6.10;68.90;;;;;;5117450;28;20412;-77
2021/04/25 04:54:36;;;;;;;9.73;1.77;;;6.10;68.30;;;;;;5118426;28;20048;-78
2021/04/25 04:57:02;;;;;;;10.40;3.27;;;6.00;67.80;;;;;;5117776;28;20051;-77
2021/04/25 04:59:27;;;;;;;3.80;1.43;;;6.10;67.50;;;;;;5117476;28;20055;-77
2021/04/25 05:01:53;;;;;;;7.13;1.60;;;6.10;67.50;;;;;;5117609;28;20498;-76
2021/04/25 05:04:19;;;;;;;6.97;1.97;;;6.10;67.40;;;;;;5117646;28;20312;-77
2021/04/25 05:06:45;;;;;;;9.10;2.30;;;6.10;67.70;;;;;;5117199;28;20127;-77
2021/04/25 05:09:11;;;;;;;9.30;2.50;;;6.10;67.80;;;;;;5117919;28;20047;-76
2021/04/25 05:11:37;;;;;;;6.17;1.90;;;6.10;67.80;;;;;;5118194;28;20043;-78
2021/04/25 05:14:03;;;;;;;7.03;2.00;;;6.10;68.00;;;;;;5116828;28;20051;-78
2021/04/25 05:16:29;;;;;;;7.83;1.40;;;6.10;68.00;;;;;;5118016;28;20624;-78
2021/04/25 05:18:55;;;;;;;8.20;1.70;;;6.20;68.70;;;;;;5117216;28;20308;-76
2021/04/25 05:21:21;;;;;;;11.00;1.80;;;6.20;67.90;;;;;;5117477;28;20063;-78
2021/04/25 05:23:46;;;;;;;6.93;2.20;;;6.20;67.80;;;;;;5117913;28;20089;-77
2021/04/25 05:26:12;;;;;;;7.97;1.77;;;6.20;68.00;;;;;;5117783;28;20420;-77
2021/04/25 05:28:37;;;;;;;8.93;1.83;;;6.20;68.00;;;;;;5117323;28;20051;-76
2021/04/25 05:31:03;;;;;;;9.37;2.37;;;6.30;68.30;;;;;;5117301;28;20051;-78
2021/04/25 05:33:30;;;;;;;7.80;1.83;;;6.30;68.40;;;;;;5117246;28;20157;-78
2021/04/25 05:35:56;;;;;;;10.87;1.93;;;6.30;68.60;;;;;;5117165;28;20060;-79
2021/04/25 05:38:22;;;;;;;10.00;1.97;;;6.40;68.70;;;;;;5117088;28;20285;-78
2021/04/25 05:40:47;;;;;;;13.90;2.40;;;6.30;68.90;;;;;;5112896;28;20075;-76
2021/04/25 05:43:13;;;;;;;12.40;2.80;;;6.30;69.00;;;;;;5114330;28;20058;-76
2021/04/25 05:45:39;;;;;;;7.47;1.80;;;6.30;69.10;;;;;;5114534;28;20447;-77
2021/04/25 05:48:05;;;;;;;6.10;1.50;;;6.30;69.20;;;;;;5113097;28;20131;-78
2021/04/25 05:50:31;;;;;;;12.60;2.20;;;6.40;69.30;;;;;;5114541;28;20507;-79
2021/04/25 05:52:57;;;;;;;5.27;2.00;;;6.40;69.40;;;;;;5114179;28;20286;-79
2021/04/25 05:55:24;;;;;;;9.30;2.07;;;6.40;69.50;;;;;;5113910;28;20047;-78
2021/04/25 05:57:50;;;;;;;7.20;2.20;;;6.40;69.60;;;;;;5114906;27;20309;-79
2021/04/25 06:00:23;;;;;;;8.77;1.80;;;6.50;69.40;;;;;;5114159;28;20346;-79
2021/04/25 06:02:49;;;;;;;10.53;2.37;;;6.50;68.60;;;;;;5112204;28;20297;-78
2021/04/25 06:05:16;;;;;;;15.20;2.67;;;6.50;68.00;;;;;;5114076;28;20374;-79
2021/04/25 06:07:42;;;;;;;7.07;2.27;;;6.50;68.10;;;;;;5114045;28;20112;-78
2021/04/25 06:10:09;;;;;;;8.00;1.63;;;6.60;68.30;;;;;;5113408;28;20350;-79
2021/04/25 06:12:35;;;;;;;7.73;1.60;;;6.60;68.50;;;;;;5114162;28;20846;-78
2021/04/25 06:15:00;;;;;;;5.10;1.63;;;6.60;68.60;;;;;;5113621;28;20396;-79
2021/04/25 06:17:26;;;;;;;6.50;2.50;;;6.60;68.50;;;;;;5113164;28;20549;-79
2021/04/25 06:19:51;;;;;;;10.20;1.50;;;6.60;68.50;;;;;;5113796;28;20047;-77
2021/04/25 06:22:18;;;;;;;6.93;1.70;;;6.60;68.40;;;;;;5113917;28;20047;-79
2021/04/25 06:24:44;;;;;;;12.03;2.07;;;6.60;68.30;;;;;;5112848;28;20060;-78
2021/04/25 06:27:10;;;;;;;7.60;1.57;;;6.70;68.40;;;;;;5113457;28;20770;-79
2021/04/25 06:29:36;;;;;;;6.53;1.50;;;6.70;68.20;;;;;;5113890;28;20043;-80
2021/04/25 06:32:03;;;;;;;10.57;2.10;;;6.80;68.20;;;;;;5112478;28;20048;-79
2021/04/25 06:34:28;;;;;;;9.00;1.87;;;6.90;68.20;;;;;;5113657;28;20086;-78
2021/04/25 06:36:54;;;;;;;7.07;1.80;;;6.90;67.80;;;;;;5112972;28;20321;-80
2021/04/25 06:39:22;;;;;;;6.93;1.67;;;7.00;67.40;;;;;;5113790;28;20176;-80
2021/04/25 06:41:47;;;;;;;6.77;1.60;;;7.10;66.50;;;;;;5113404;28;20376;-79
2021/04/25 06:44:13;;;;;;;7.57;1.60;;;7.20;66.20;;;;;;5112516;28;20055;-79
2021/04/25 06:46:38;;;;;;;8.27;1.60;;;7.20;65.90;;;;;;5113573;28;20052;-78
2021/04/25 06:49:04;;;;;;;9.80;2.37;;;7.30;65.20;;;;;;5113085;28;20066;-78
2021/04/25 06:51:30;;;;;;;10.30;1.47;;;7.30;64.90;;;;;;5112310;28;20066;-78
2021/04/25 06:53:57;;;;;;;11.47;2.17;;;7.30;65.10;;;;;;5112575;28;20519;-78
2021/04/25 06:56:23;;;;;;;5.40;1.70;;;7.30;64.90;;;;;;5113282;28;20419;-77
2021/04/25 06:58:48;;;;;;;8.27;1.63;;;7.30;64.90;;;;;;5112209;28;20374;-78
2021/04/25 07:01:15;;;;;;;6.53;1.50;;;7.20;64.90;;;;;;5112596;28;21099;-78
2021/04/25 07:03:41;;;;;;;6.80;1.60;;;7.20;64.80;;;;;;5112974;28;20449;-78
2021/04/25 07:06:06;;;;;;;7.67;1.80;;;7.20;64.50;;;;;;5111505;28;20345;-78
2021/04/25 07:08:32;;;;;;;9.27;1.80;;;7.20;64.60;;;;;;5111944;28;20052;-77
2021/04/25 07:10:58;;;;;;;6.87;1.60;;;7.20;64.80;;;;;;5112237;28;20104;-78
2021/04/25 07:13:24;;;;;;;12.37;2.73;;;7.20;64.90;;;;;;5111762;28;20051;-77
2021/04/25 07:15:50;;;;;;;10.27;1.93;;;7.20;65.20;;;;;;5112608;28;20048;-76
2021/04/25 07:18:16;;;;;;;6.77;1.57;;;7.20;64.80;;;;;;5112997;28;20112;-79
2021/04/25 07:20:42;;;;;;;12.43;1.67;;;7.20;64.40;;;;;;5112032;28;20161;-72
2021/04/25 07:23:08;;;;;;;8.77;1.63;;;7.30;64.20;;;;;;5110289;28;20388;-72
2021/04/25 07:25:34;;;;;;;8.53;2.03;;;7.20;64.30;;;;;;5104549;28;20869;-72
2021/04/25 07:28:00;;;;;;;7.00;1.50;;;7.30;64.20;;;;;;5101356;28;20115;-73
2021/04/25 07:30:26;;;;;;;7.73;2.43;;;7.30;63.70;;;;;;5098996;28;20432;-74
2021/04/25 07:32:54;;;;;;;10.53;2.47;;;7.40;62.90;;;;;;5093495;28;20286;-74
2021/04/25 07:35:20;;;;;;;9.00;1.47;;;7.40;62.60;;;;;;5108292;28;20384;-74
2021/04/25 07:37:48;;;;;;;3.80;1.23;;;7.50;62.30;;;;;;5109058;28;20392;-76
2021/04/25 07:40:14;;;;;;;6.73;1.50;;;7.50;61.70;;;;;;5108361;27;20043;-75
2021/04/25 07:42:40;;;;;;;7.37;1.47;;;7.50;61.80;;;;;;5109617;28;20317;-74
2021/04/25 07:45:08;;;;;;;9.10;2.03;;;7.60;61.80;;;;;;5108752;28;20313;-74
2021/04/25 07:47:34;;;;;;;6.40;1.63;;;7.70;61.80;;;;;;5108720;28;20099;-75
2021/04/25 07:50:00;;;;;;;7.17;1.40;;;7.70;61.70;;;;;;5108650;28;20813;-73
2021/04/25 07:52:25;;;;;;;7.53;1.77;;;7.80;61.70;;;;;;5109469;28;20044;-79
2021/04/25 07:54:51;;;;;;;9.20;2.00;;;7.80;61.30;;;;;;5108367;28;20110;-79
2021/04/25 07:57:17;;;;;;;7.73;1.23;;;7.80;61.30;;;;;;5109000;28;20043;-80
2021/04/25 07:59:42;;;;;;;6.53;1.23;;;7.80;61.80;;;;;;5110377;28;20500;-77
2021/04/25 08:02:08;;;;;;;9.77;2.17;;;7.70;61.40;;;;;;5107359;28;20048;-77
2021/04/25 08:04:34;;;;;;;7.07;1.53;;;7.80;61.50;;;;;;5109029;28;20470;-77
2021/04/25 08:07:00;;;;;;;8.20;2.07;;;7.80;61.70;;;;;;5108615;28;20305;-74
2021/04/25 08:09:26;;;;;;;11.17;1.80;;;7.80;61.80;;;;;;5108888;28;20075;-77
2021/04/25 08:11:51;;;;;;;9.13;2.40;;;7.90;61.60;;;;;;5109128;28;20087;-74
2021/04/25 08:14:17;;;;;;;5.17;1.40;;;7.90;61.40;;;;;;5106912;28;20053;-75
2021/04/25 08:16:43;;;;;;;7.70;1.60;;;8.00;61.20;;;;;;5107956;28;20101;-75
2021/04/25 08:19:08;;;;;;;3.83;1.37;;;8.00;61.00;;;;;;5108438;28;20135;-73
2021/04/25 08:21:34;;;;;;;11.17;2.20;;;8.00;61.10;;;;;;5108450;28;20051;-75
2021/04/25 08:24:00;;;;;;;5.57;1.53;;;8.00;61.20;;;;;;5107375;28;20055;-75
2021/04/25 08:26:26;;;;;;;9.47;1.40;;;8.00;61.20;;;;;;5108728;28;20555;-77
2021/04/25 08:28:52;;;;;;;8.73;1.77;;;8.00;61.60;;;;;;5108290;28;20333;-76
2021/04/25 08:31:18;;;;;;;9.17;2.23;;;8.00;61.70;;;;;;5108026;28;20344;-76
2021/04/25 08:33:44;;;;;;;8.37;1.97;;;8.00;62.00;;;;;;5108348;28;20101;-75
2021/04/25 08:36:09;;;;;;;12.17;1.57;;;8.00;61.70;;;;;;5108733;28;20067;-76
2021/04/25 08:38:35;;;;;;;7.43;1.20;;;8.00;61.90;;;;;;5107871;28;21012;-76
2021/04/25 08:41:03;;;;;;;7.57;1.53;;;8.00;62.30;;;;;;5107948;28;20093;-79
2021/04/25 08:43:29;;;;;;;7.27;1.83;;;8.00;62.00;;;;;;5108195;28;20044;-75
2021/04/25 08:45:58;;;;;;;5.13;1.63;;;8.00;62.10;;;;;;5107948;28;20317;-75
2021/04/25 08:48:28;;;;;;;2.90;1.33;;;8.10;61.90;;;;;;5108117;28;20293;-75
2021/04/25 08:50:55;;;;;;;12.23;1.80;;;8.10;61.70;;;;;;5107732;28;20824;-74
2021/04/25 08:53:21;;;;;;;5.47;1.57;;;8.10;61.40;;;;;;5109073;28;20305;-75
2021/04/25 08:55:47;;;;;;;7.17;1.60;;;8.10;60.70;;;;;;5108283;28;20305;-75
2021/04/25 08:58:14;;;;;;;6.40;1.47;;;8.20;60.50;;;;;;5107408;28;20332;-74
2021/04/25 09:00:40;;;;;;;4.03;1.60;;;8.20;60.10;;;;;;5108560;28;20304;-74
2021/04/25 09:03:06;;;;;;;10.27;1.67;;;8.30;60.10;;;;;;5107952;28;20365;-73
2021/04/25 09:05:32;;;;;;;6.50;1.47;;;8.40;59.60;;;;;;5107337;28;20801;-72
2021/04/25 09:08:04;;;;;;;3.53;1.13;;;8.40;59.10;;;;;;5107984;28;20374;-73
2021/04/25 09:10:35;;;;;;;6.85;1.60;;;8.30;58.90;;;;;;5108577;28;20385;-75
2021/04/25 09:13:12;;;;;;;6.75;1.75;;;8.40;59.30;;;;;;5107951;28;20128;-72
2021/04/25 09:15:38;;;;;;;9.23;2.53;;;8.50;58.90;;;;;;5112405;28;20043;-74
2021/04/25 09:18:05;;;;;;;9.30;1.77;;;8.50;59.20;;;;;;5111795;28;20343;-72
2021/04/25 09:20:41;;;;;;;8.03;1.57;;;8.60;59.50;;;;;;5111704;28;20302;-71
2021/04/25 09:23:09;;;;;;;7.53;2.07;;;8.70;59.50;;;;;;5112252;28;20297;-71
2021/04/25 09:25:36;;;;;;;8.93;1.50;;;8.80;59.10;;;;;;5112702;28;20798;-71
2021/04/25 09:28:14;;;;;;;5.03;1.63;;;8.80;58.90;;;;;;5112824;28;20313;-71
2021/04/25 09:30:52;;;;;;;5.40;1.60;;;8.80;58.40;;;;;;5113618;28;20798;-70
2021/04/25 09:33:18;;;;;;;11.00;1.70;;;8.80;58.70;;;;;;5112700;28;20305;-70
2021/04/25 09:35:43;;;;;;;9.63;2.27;;;8.80;58.50;;;;;;5112810;28;20317;-70
2021/04/25 09:38:11;;;;;;;10.77;2.20;;;8.70;58.50;;;;;;5113099;28;20062;-72
2021/04/25 09:40:45;;;;;;;8.77;2.00;;;8.70;58.50;;;;;;5112695;28;20051;-71
2021/04/25 09:43:13;;;;;;;7.47;2.13;;;8.70;58.90;;;;;;5113458;28;20301;-72
2021/04/25 09:45:39;;;;;;;4.27;1.40;;;8.80;58.90;;;;;;5112814;28;20318;-71
2021/04/25 09:48:24;;;;;;;10.90;2.13;;;8.80;58.90;;;;;;5111697;28;20346;-71
2021/04/25 09:51:16;;;;;;;7.30;1.70;;;8.80;58.90;;;;;;5113004;28;20313;-71
2021/04/25 09:53:49;;;;;;;6.43;1.70;;;8.80;58.50;;;;;;5104076;28;20294;-71
2021/04/25 09:56:19;;;;;;;7.70;2.00;;;8.80;58.60;;;;;;5112284;28;20750;-70
2021/04/25 09:58:57;;;;;;;11.13;1.97;;;8.80;58.70;;;;;;5112742;28;20304;-72
2021/04/25 10:01:40;;;;;;;8.43;2.87;;;8.90;58.20;;;;;;5112169;28;20301;-71
2021/04/25 10:04:30;;;;;;;9.37;1.90;;;8.90;58.20;;;;;;5112808;28;20325;-70
2021/04/25 10:06:57;;;;;;;9.10;1.73;;;9.00;58.10;;;;;;5112309;28;20297;-70
2021/04/25 10:09:24;;;;;;;9.33;1.93;;;9.10;58.10;;;;;;5111967;28;20708;-71
2021/04/25 10:11:55;;;;;;;8.00;1.50;;;9.20;57.50;;;;;;5112227;28;20301;-74
2021/04/25 10:14:21;;;;;;;7.00;1.75;;;9.30;57.00;;;;;;5112547;28;20392;-73
2021/04/25 10:16:47;;;;;;;8.90;2.07;;;9.30;56.40;;;;;;5111233;28;20051;-72
2021/04/25 10:19:14;;;;;;;6.87;1.50;;;9.30;56.50;;;;;;5111696;28;20301;-74
2021/04/25 10:21:41;;;;;;;4.97;1.73;;;9.40;56.90;;;;;;5112067;28;20059;-71
2021/04/25 10:24:08;;;;;;;4.57;1.60;;;9.60;56.60;;;;;;5110834;28;20306;-72
2021/04/25 10:26:39;;;;;;;7.03;1.73;;;9.90;56.10;;;;;;5111200;28;20306;-71
2021/04/25 10:29:10;;;;;;;7.18;1.67;;;10.10;55.30;;;;;;5110574;28;21086;-71
2021/04/25 10:31:37;;;;;;;8.37;1.67;;;10.40;55.30;;;;;;5109614;28;20123;-72
2021/04/25 10:34:06;;;;;;;6.33;1.23;;;10.60;54.80;;;;;;5111315;28;20399;-73
2021/04/25 10:36:51;;;;;;;3.73;1.33;;;10.70;54.00;;;;;;5108448;28;20067;-71
2021/04/25 10:39:49;;;;;;;8.17;1.70;;;10.80;51.50;;;;;;5108491;28;20293;-70
2021/04/25 10:42:23;;;;;;;6.70;1.50;;;10.60;53.20;;;;;;5109289;28;20402;-70
2021/04/25 10:45:04;;;;;;;8.87;1.83;;;10.60;53.20;;;;;;5110438;28;20109;-73
2021/04/25 10:47:32;;;;;;;7.15;2.63;;;10.50;53.40;;;;;;5109288;27;20534;-71
2021/04/25 10:50:00;;;;;;;7.23;1.43;;;10.60;53.50;;;;;;5110260;28;20039;-73
2021/04/25 10:52:28;;;;;;;7.87;1.50;;;10.60;53.30;;;;;;5111303;28;20087;-73
2021/04/25 10:55:17;;;;;;;7.93;1.60;;;10.60;53.40;;;;;;5108785;28;20816;-73
2021/04/25 10:57:55;;;;;;;8.17;1.87;;;10.70;53.20;;;;;;5109407;28;20122;-72
2021/04/25 11:00:30;;;;;;;8.43;1.90;;;10.70;53.00;;;;;;5109768;28;20051;-74
2021/04/25 11:03:00;;;;;;;7.20;1.40;;;10.70;53.10;;;;;;5108113;27;20043;-70
2021/04/25 11:05:41;;;;;;;7.23;1.50;;;10.60;53.40;;;;;;5109157;28;20591;-74
2021/04/25 11:08:13;;;;;;;6.63;1.48;;;10.60;53.20;;;;;;5110169;28;20658;-73
2021/04/25 11:10:54;;;;;;;8.02;1.80;;;10.70;53.50;;;;;;5111238;28;20065;-70
2021/04/25 11:13:36;;;;;;;6.88;1.92;;;10.70;53.40;;;;;;5108811;28;20056;-70
2021/04/25 11:16:14;;;;;;;7.10;1.75;;;10.70;54.00;;;;;;5108939;28;20071;-70
2021/04/25 11:19:00;;;;;;;4.27;1.37;;;10.60;53.90;;;;;;5108723;28;20404;-69
2021/04/25 11:21:34;;;;;;;8.07;2.00;;;10.60;53.80;;;;;;5110020;28;20535;-74
2021/04/25 11:24:03;;;;;;;7.17;1.60;;;10.70;53.80;;;;;;5110675;28;20044;-71
2021/04/25 11:26:35;;;;;;;11.80;1.40;;;10.80;54.20;;;;;;5110110;28;20500;-71
2021/04/25 11:29:02;;;;;;;7.70;1.80;;;10.80;53.80;;;;;;5110280;28;20455;-71
2021/04/25 11:31:45;;;;;;;4.93;2.07;;;11.00;54.00;;;;;;5110736;28;20040;-73
2021/04/25 11:34:25;;;;;;;6.83;1.53;;;11.10;51.60;;;;;;5109726;28;20126;-73
2021/04/25 11:37:05;;;;;;;5.57;1.47;;;11.10;52.10;;;;;;5106551;28;20122;-73
2021/04/25 11:39:40;;;;;;;10.13;1.90;;;11.30;52.30;;;;;;5107157;28;20052;-73
2021/04/25 11:42:07;;;;;;;8.93;2.13;;;11.50;52.60;;;;;;5110371;28;20048;-74
2021/04/25 11:44:36;;;;;;;9.00;1.93;;;11.60;52.60;;;;;;5108352;28;20131;-71
2021/04/25 11:47:08;;;;;;;8.77;1.70;;;11.70;52.60;;;;;;5108110;28;20087;-74
2021/04/25 11:49:39;;;;;;;5.20;1.60;;;11.60;51.10;;;;;;5107874;28;20062;-71
2021/04/25 11:52:23;;;;;;;8.07;1.75;;;11.30;51.20;;;;;;5109750;28;20127;-74
2021/04/25 11:55:03;;;;;;;7.27;1.77;;;11.00;50.70;;;;;;5108856;28;20507;-74
2021/04/25 11:57:31;;;;;;;6.00;1.90;;;10.80;51.00;;;;;;5110316;28;20358;-75
2021/04/25 12:00:03;;;;;;;5.27;1.60;;;10.80;51.60;;;;;;5109727;28;20067;-81
2021/04/25 12:02:39;;;;;;;7.63;2.20;;;10.90;51.60;;;;;;5109920;28;20051;-73
2021/04/25 12:05:11;;;;;;;6.63;1.60;;;11.40;51.40;;;;;;5110977;28;20047;-73
2021/04/25 12:07:43;;;;;;;8.20;1.75;;;11.90;49.70;;;;;;5109212;28;20044;-74
2021/04/25 12:10:11;;;;;;;8.23;1.90;;;12.10;50.20;;;;;;5111157;28;20105;-73
2021/04/25 12:12:52;;;;;;;8.23;2.40;;;12.00;50.20;;;;;;5112071;28;20058;-73
2021/04/25 12:15:18;;;;;;;9.73;2.37;;;12.00;50.60;;;;;;5110661;28;20443;-73
2021/04/25 12:17:54;;;;;;;11.53;2.47;;;11.80;51.30;;;;;;5111505;28;20134;-73
2021/04/25 12:20:20;;;;;;;15.70;2.73;;;11.80;51.80;;;;;;5111379;28;20043;-73
2021/04/25 12:22:47;;;;;;;8.10;2.43;;;11.90;52.10;;;;;;5110138;28;20047;-73
2021/04/25 12:25:13;;;;;;;10.13;2.00;;;12.20;52.20;;;;;;5111178;28;20067;-73
2021/04/25 12:27:51;;;;;;;6.97;2.00;;;12.40;51.10;;;;;;5111352;28;20462;-73
2021/04/25 12:30:23;;;;;;;8.43;1.60;;;12.20;50.20;;;;;;5108719;28;20071;-73
2021/04/25 12:33:19;;;;;;;7.57;1.70;;;12.00;50.60;;;;;;5108304;28;20043;-72
2021/04/25 12:35:50;;;;;;;6.60;2.03;;;11.70;49.80;;;;;;5108935;28;20082;-73
2021/04/25 12:38:26;;;;;;;9.17;2.30;;;11.40;51.10;;;;;;5111183;28;20488;-73
2021/04/25 12:40:55;;;;;;;8.67;2.20;;;11.40;51.60;;;;;;5109141;28;20043;-73
2021/04/25 12:43:20;;;;;;;6.63;2.17;;;11.60;51.60;;;;;;5110494;28;20043;-73
2021/04/25 12:45:46;;;;;;;8.43;1.73;;;11.90;50.20;;;;;;5107462;28;20090;-73
2021/04/25 12:48:46;;;;;;;6.43;1.93;;;12.00;49.80;;;;;;5111387;28;20039;-73
2021/04/25 12:51:19;;;;;;;10.23;2.20;;;12.10;48.90;;;;;;5102811;27;20093;-73
2021/04/25 12:53:51;;;;;;;9.17;1.90;;;12.30;48.60;;;;;;5114770;28;20043;-72
2021/04/25 12:56:22;;;;;;;;;;;12.50;48.10;;;;;;5115534;28;20051;-72
2021/04/25 12:59:14;;;;;;;5.83;1.33;;;12.50;46.40;;;;;;5111198;28;19935;-73